This is the latest recevied weather packets stored in our database for station/object GW1497. If no packets are shown the sender has not sent any weather packets the latest 10 day(s).
| Time | Temp. | Humidity | Pressure | Rain* | Wind** | Luminosity | Snow |
|---|---|---|---|---|---|---|---|
| 1777816828 | 8.33° C | 64% | 1021.6 hPa | 0 mm | - | - | - |
| 1777808179 | 0.56° C | 99% | 1020.6 hPa | 0 mm | - | - | - |
| 1777807091 | 0° C | 99% | 1020.3 hPa | 0 mm | - | - | - |
| 1777804936 | -0.56° C | 99% | 1019.9 hPa | 0 mm | - | - | - |
| 1777802774 | -0.56° C | 99% | 1019.3 hPa | 0 mm | - | - | - |
| 1777798814 | -0.56° C | 99% | 1019.3 hPa | 0 mm | - | - | - |
| 1777797760 | -0.56° C | 99% | 1019.3 hPa | 0 mm | - | - | - |
| 1777797038 | -0.56° C | 99% | 1019.3 hPa | 0 mm | - | - | - |
| 1777796691 | -0.56° C | 99% | 1019.3 hPa | 0 mm | - | - | - |
| 1777791984 | 0.56° C | 98% | 1018.9 hPa | 0 mm | - | - | - |
| 1777789092 | 1.11° C | 96% | 1018.9 hPa | 0 mm | - | - | - |
| 1777786957 | 1.67° C | 95% | 1018.9 hPa | 0 mm | - | - | - |
| 1777786583 | 1.67° C | 95% | 1018.9 hPa | 0 mm | - | - | - |
| 1777786251 | 1.67° C | 95% | 1018.9 hPa | 0 mm | - | - | - |
| 1777785535 | 1.67° C | 95% | 1018.9 hPa | 0 mm | - | - | - |
| 1777783725 | 2.22° C | 91% | 1018.9 hPa | 0 mm | - | - | - |
| 1777783362 | 2.22° C | 89% | 1018.9 hPa | 0 mm | - | - | - |
| 1777782283 | 3.33° C | 86% | 1018.9 hPa | 0 mm | - | - | - |
| 1777781903 | 3.33° C | 86% | 1018.9 hPa | 0 mm | - | - | - |
| 1777781183 | 3.33° C | 85% | 1018.9 hPa | 0 mm | - | - | - |
| 1777780492 | 3.33° C | 85% | 1018.9 hPa | 0 mm | - | - | - |
| 1777779736 | 3.33° C | 84% | 1018.9 hPa | 0 mm | - | - | - |
| 1777777224 | 4.44° C | 79% | 1018.9 hPa | 0 mm | - | - | - |
| 1777775778 | 4.44° C | 77% | 1018.9 hPa | 0 mm | - | - | - |
| 1777771814 | 5.56° C | 73% | 1018.9 hPa | 0 mm | - | - | - |
* Rain since midnight (hover to see other rain measurements)
** Current wind speed in m/s (hover to see current wind gust speed)